sensor_id;sensor_type;location;lat;lon;timestamp;pressure;altitude;pressure_sealevel;temperature;humidity
60099;BME280;62818;49.394;8.686;2022-09-03T00:01:09;99861.16;;;20.51;41.83
60099;BME280;62818;49.394;8.686;2022-09-03T00:02:24;99869.28;;;20.56;41.72
60099;BME280;62818;49.394;8.686;2022-09-03T00:03:43;99874.47;;;20.63;41.69
60099;BME280;62818;49.394;8.686;2022-09-03T00:05:25;99864.91;;;20.50;41.82
60099;BME280;62818;49.394;8.686;2022-09-03T00:06:47;99855.00;;;20.56;41.75
60099;BME280;62818;49.394;8.686;2022-09-03T00:09:10;99868.72;;;20.54;41.98
60099;BME280;62818;49.394;8.686;2022-09-03T00:10:20;99852.66;;;20.64;41.69
60099;BME280;62818;49.394;8.686;2022-09-03T00:11:34;99864.13;;;20.77;41.93
60099;BME280;62818;49.394;8.686;2022-09-03T00:12:51;99873.75;;;20.46;42.03
60099;BME280;62818;49.394;8.686;2022-09-03T00:14:08;99867.06;;;20.48;42.03
60099;BME280;62818;49.394;8.686;2022-09-03T00:15:19;99870.09;;;20.57;42.50
60099;BME280;62818;49.394;8.686;2022-09-03T00:16:25;99869.84;;;20.58;42.33
60099;BME280;62818;49.394;8.686;2022-09-03T00:17:47;99866.09;;;20.59;42.00
60099;BME280;62818;49.394;8.686;2022-09-03T00:18:59;99856.88;;;20.55;42.36
60099;BME280;62818;49.394;8.686;2022-09-03T00:20:09;99853.13;;;20.56;42.22
60099;BME280;62818;49.394;8.686;2022-09-03T00:21:17;99854.00;;;20.40;42.57
60099;BME280;62818;49.394;8.686;2022-09-03T00:22:33;99856.31;;;20.53;42.05
60099;BME280;62818;49.394;8.686;2022-09-03T00:23:40;99847.44;;;20.53;42.52
60099;BME280;62818;49.394;8.686;2022-09-03T00:24:44;99856.31;;;20.53;42.20
60099;BME280;62818;49.394;8.686;2022-09-03T00:25:49;99882.25;;;20.59;42.38
60099;BME280;62818;49.394;8.686;2022-09-03T00:26:59;99849.88;;;20.54;42.08
60099;BME280;62818;49.394;8.686;2022-09-03T00:28:12;99851.38;;;20.45;42.45
60099;BME280;62818;49.394;8.686;2022-09-03T00:29:34;99843.25;;;20.40;42.47
60099;BME280;62818;49.394;8.686;2022-09-03T00:30:41;99841.44;;;20.46;42.50
60099;BME280;62818;49.394;8.686;2022-09-03T00:32:01;99861.34;;;20.45;42.31
60099;BME280;62818;49.394;8.686;2022-09-03T00:33:20;99858.41;;;20.46;42.40
60099;BME280;62818;49.394;8.686;2022-09-03T00:34:28;99858.44;;;20.51;42.37
60099;BME280;62818;49.394;8.686;2022-09-03T00:35:39;99857.25;;;20.42;42.75
60099;BME280;62818;49.394;8.686;2022-09-03T00:36:42;99867.47;;;20.40;42.55
60099;BME280;62818;49.394;8.686;2022-09-03T00:37:50;99860.41;;;20.34;42.89
60099;BME280;62818;49.394;8.686;2022-09-03T00:38:56;99853.72;;;20.37;42.55
60099;BME280;62818;49.394;8.686;2022-09-03T00:40:00;99850.97;;;20.32;42.79
60099;BME280;62818;49.394;8.686;2022-09-03T00:41:07;99845.91;;;20.35;42.84
60099;BME280;62818;49.394;8.686;2022-09-03T00:44:13;99843.16;;;20.30;42.79
60099;BME280;62818;49.394;8.686;2022-09-03T00:47:07;99851.28;;;20.35;43.07
60099;BME280;62818;49.394;8.686;2022-09-03T00:48:52;99853.97;;;20.35;42.65
60099;BME280;62818;49.394;8.686;2022-09-03T00:56:51;99852.47;;;20.23;43.68
60099;BME280;62818;49.394;8.686;2022-09-03T01:00:43;99845.47;;;20.05;45.12
60099;BME280;62818;49.394;8.686;2022-09-03T01:02:05;99843.78;;;19.99;45.54
60099;BME280;62818;49.394;8.686;2022-09-03T01:03:34;99847.59;;;20.03;45.10
60099;BME280;62818;49.394;8.686;2022-09-03T01:05:45;99852.34;;;19.96;44.87
60099;BME280;62818;49.394;8.686;2022-09-03T01:08:08;99841.09;;;19.99;44.83
60099;BME280;62818;49.394;8.686;2022-09-03T01:16:42;99842.22;;;20.03;44.04
60099;BME280;62818;49.394;8.686;2022-09-03T01:21:13;99840.28;;;19.98;43.59
60099;BME280;62818;49.394;8.686;2022-09-03T01:25:25;99853.19;;;19.96;43.83
60099;BME280;62818;49.394;8.686;2022-09-03T01:32:28;99851.38;;;20.02;43.53
60099;BME280;62818;49.394;8.686;2022-09-03T01:33:42;99855.94;;;20.02;43.74
60099;BME280;62818;49.394;8.686;2022-09-03T01:38:04;99846.69;;;20.14;43.71
60099;BME280;62818;49.394;8.686;2022-09-03T01:39:12;99841.66;;;20.01;43.90
60099;BME280;62818;49.394;8.686;2022-09-03T01:40:42;99851.88;;;19.99;44.08
60099;BME280;62818;49.394;8.686;2022-09-03T01:43:38;99846.50;;;19.99;43.65
60099;BME280;62818;49.394;8.686;2022-09-03T01:46:20;99864.13;;;19.90;44.15
60099;BME280;62818;49.394;8.686;2022-09-03T01:49:22;99861.31;;;20.02;43.93
60099;BME280;62818;49.394;8.686;2022-09-03T01:55:43;99862.38;;;20.01;43.86
60099;BME280;62818;49.394;8.686;2022-09-03T01:59:00;99854.88;;;20.03;43.96
60099;BME280;62818;49.394;8.686;2022-09-03T02:00:10;99859.69;;;20.01;43.87
60099;BME280;62818;49.394;8.686;2022-09-03T02:01:21;99858.94;;;20.05;43.98
60099;BME280;62818;49.394;8.686;2022-09-03T02:02:31;99856.13;;;19.95;43.98
60099;BME280;62818;49.394;8.686;2022-09-03T02:03:36;99850.03;;;19.83;44.42
60099;BME280;62818;49.394;8.686;2022-09-03T02:06:29;99834.69;;;20.00;44.28
60099;BME280;62818;49.394;8.686;2022-09-03T02:07:34;99853.19;;;19.96;44.17
60099;BME280;62818;49.394;8.686;2022-09-03T02:08:41;99841.78;;;19.89;44.36
60099;BME280;62818;49.394;8.686;2022-09-03T02:09:44;99843.59;;;19.84;44.65
60099;BME280;62818;49.394;8.686;2022-09-03T02:10:52;99839.28;;;19.83;44.43
60099;BME280;62818;49.394;8.686;2022-09-03T02:12:04;99847.28;;;19.78;44.74
60099;BME280;62818;49.394;8.686;2022-09-03T02:13:22;99853.50;;;20.00;44.50
60099;BME280;62818;49.394;8.686;2022-09-03T02:14:26;99842.78;;;19.83;44.43
60099;BME280;62818;49.394;8.686;2022-09-03T02:15:29;99858.53;;;19.75;44.56
60099;BME280;62818;49.394;8.686;2022-09-03T02:16:37;99845.56;;;19.72;44.67
60099;BME280;62818;49.394;8.686;2022-09-03T02:17:40;99859.44;;;19.80;44.83
60099;BME280;62818;49.394;8.686;2022-09-03T02:18:51;99857.31;;;19.82;44.61
60099;BME280;62818;49.394;8.686;2022-09-03T02:20:06;99866.69;;;19.80;44.88
60099;BME280;62818;49.394;8.686;2022-09-03T02:21:13;99857.16;;;19.94;44.84
60099;BME280;62818;49.394;8.686;2022-09-03T02:22:19;99851.75;;;19.89;44.45
60099;BME280;62818;49.394;8.686;2022-09-03T02:23:24;99865.69;;;19.86;44.57
60099;BME280;62818;49.394;8.686;2022-09-03T02:24:27;99855.47;;;19.88;44.79
60099;BME280;62818;49.394;8.686;2022-09-03T02:25:39;99862.50;;;19.89;44.73
60099;BME280;62818;49.394;8.686;2022-09-03T02:26:45;99865.19;;;19.89;44.63
60099;BME280;62818;49.394;8.686;2022-09-03T02:27:48;99866.41;;;19.98;44.57
60099;BME280;62818;49.394;8.686;2022-09-03T02:28:51;99868.44;;;19.91;44.79
60099;BME280;62818;49.394;8.686;2022-09-03T02:29:55;99869.69;;;19.83;44.89
60099;BME280;62818;49.394;8.686;2022-09-03T02:30:59;99868.56;;;19.79;44.83
60099;BME280;62818;49.394;8.686;2022-09-03T02:32:00;99870.75;;;19.82;44.91
60099;BME280;62818;49.394;8.686;2022-09-03T02:33:05;99872.63;;;19.82;44.84
60099;BME280;62818;49.394;8.686;2022-09-03T02:34:06;99874.97;;;19.95;44.80
60099;BME280;62818;49.394;8.686;2022-09-03T02:35:10;99866.06;;;19.94;44.73
60099;BME280;62818;49.394;8.686;2022-09-03T02:36:16;99864.81;;;19.80;44.78
60099;BME280;62818;49.394;8.686;2022-09-03T02:37:22;99874.41;;;19.76;44.97
60099;BME280;62818;49.394;8.686;2022-09-03T02:38:25;99868.47;;;19.74;44.96
60099;BME280;62818;49.394;8.686;2022-09-03T02:39:25;99863.34;;;19.73;44.82
60099;BME280;62818;49.394;8.686;2022-09-03T02:40:27;99876.72;;;19.68;45.13
60099;BME280;62818;49.394;8.686;2022-09-03T02:41:28;99869.03;;;19.76;44.93
60099;BME280;62818;49.394;8.686;2022-09-03T02:42:29;99868.56;;;19.79;45.51
60099;BME280;62818;49.394;8.686;2022-09-03T02:43:36;99867.34;;;19.70;44.99
60099;BME280;62818;49.394;8.686;2022-09-03T02:44:48;99880.53;;;19.72;45.33
60099;BME280;62818;49.394;8.686;2022-09-03T02:46:03;99882.91;;;19.68;45.10
60099;BME280;62818;49.394;8.686;2022-09-03T02:47:07;99873.63;;;19.76;45.52
60099;BME280;62818;49.394;8.686;2022-09-03T02:48:08;99864.28;;;19.83;45.18
60099;BME280;62818;49.394;8.686;2022-09-03T02:49:14;99879.69;;;19.88;45.23
60099;BME280;62818;49.394;8.686;2022-09-03T02:50:14;99871.31;;;19.84;45.00
60099;BME280;62818;49.394;8.686;2022-09-03T02:51:18;99875.88;;;19.84;45.20
60099;BME280;62818;49.394;8.686;2022-09-03T02:52:24;99875.88;;;19.84;45.06
60099;BME280;62818;49.394;8.686;2022-09-03T02:53:27;99878.00;;;19.82;45.08
60099;BME280;62818;49.394;8.686;2022-09-03T02:54:29;99876.00;;;19.94;45.31
60099;BME280;62818;49.394;8.686;2022-09-03T02:55:32;99875.78;;;19.79;45.19
60099;BME280;62818;49.394;8.686;2022-09-03T02:56:37;99869.50;;;19.90;45.51
60099;BME280;62818;49.394;8.686;2022-09-03T02:57:38;99867.66;;;19.74;45.47
60099;BME280;62818;49.394;8.686;2022-09-03T02:58:41;99875.31;;;19.82;45.31
60099;BME280;62818;49.394;8.686;2022-09-03T02:59:42;99866.13;;;19.78;45.24
60099;BME280;62818;49.394;8.686;2022-09-03T03:00:44;99869.28;;;19.75;45.73
60099;BME280;62818;49.394;8.686;2022-09-03T03:01:47;99875.16;;;19.72;45.51
60099;BME280;62818;49.394;8.686;2022-09-03T03:02:48;99871.34;;;19.68;45.75
60099;BME280;62818;49.394;8.686;2022-09-03T03:03:51;99878.91;;;19.71;45.69
60099;BME280;62818;49.394;8.686;2022-09-03T03:04:52;99878.28;;;19.64;45.73
60099;BME280;62818;49.394;8.686;2022-09-03T03:05:57;99887.25;;;19.69;45.59
60099;BME280;62818;49.394;8.686;2022-09-03T03:07:02;99874.03;;;19.68;45.57
60099;BME280;62818;49.394;8.686;2022-09-03T03:08:03;99869.72;;;19.67;45.30
60099;BME280;62818;49.394;8.686;2022-09-03T03:09:08;99865.81;;;19.58;46.02
60099;BME280;62818;49.394;8.686;2022-09-03T03:10:13;99879.91;;;19.65;45.87
60099;BME280;62818;49.394;8.686;2022-09-03T03:11:14;99863.81;;;19.70;45.85
60099;BME280;62818;49.394;8.686;2022-09-03T03:12:22;99863.03;;;19.69;45.54
60099;BME280;62818;49.394;8.686;2022-09-03T03:13:22;99876.56;;;19.58;45.77
60099;BME280;62818;49.394;8.686;2022-09-03T03:14:26;99875.91;;;19.51;45.96
60099;BME280;62818;49.394;8.686;2022-09-03T03:15:26;99874.63;;;19.53;45.90
60099;BME280;62818;49.394;8.686;2022-09-03T03:16:28;99858.22;;;19.55;45.95
60099;BME280;62818;49.394;8.686;2022-09-03T03:17:28;99874.88;;;19.52;46.13
60099;BME280;62818;49.394;8.686;2022-09-03T03:18:31;99869.41;;;19.47;46.12
60099;BME280;62818;49.394;8.686;2022-09-03T03:19:36;99871.28;;;19.46;46.06
60099;BME280;62818;49.394;8.686;2022-09-03T03:20:37;99874.28;;;19.50;45.97
60099;BME280;62818;49.394;8.686;2022-09-03T03:21:41;99865.72;;;19.53;46.21
60099;BME280;62818;49.394;8.686;2022-09-03T03:22:44;99864.03;;;19.47;46.01
60099;BME280;62818;49.394;8.686;2022-09-03T03:23:47;99864.50;;;19.44;46.30
60099;BME280;62818;49.394;8.686;2022-09-03T03:24:48;99867.72;;;19.41;46.35
60099;BME280;62818;49.394;8.686;2022-09-03T03:25:49;99862.47;;;19.34;46.54
60099;BME280;62818;49.394;8.686;2022-09-03T03:26:50;99869.88;;;19.44;46.40
60099;BME280;62818;49.394;8.686;2022-09-03T03:27:50;99872.84;;;19.42;46.36
60099;BME280;62818;49.394;8.686;2022-09-03T03:28:58;99872.34;;;19.45;46.38
60099;BME280;62818;49.394;8.686;2022-09-03T03:30:04;99872.00;;;19.42;46.37
60099;BME280;62818;49.394;8.686;2022-09-03T03:31:10;99864.19;;;19.57;46.91
60099;BME280;62818;49.394;8.686;2022-09-03T03:32:18;99874.44;;;19.60;46.24
60099;BME280;62818;49.394;8.686;2022-09-03T03:33:18;99865.66;;;19.48;46.56
60099;BME280;62818;49.394;8.686;2022-09-03T03:34:22;99863.53;;;19.50;47.07
60099;BME280;62818;49.394;8.686;2022-09-03T03:35:23;99870.53;;;19.51;46.54
60099;BME280;62818;49.394;8.686;2022-09-03T03:36:30;99875.34;;;19.49;46.53
60099;BME280;62818;49.394;8.686;2022-09-03T03:37:35;99875.91;;;19.51;46.62
60099;BME280;62818;49.394;8.686;2022-09-03T03:38:37;99873.63;;;19.59;46.49
60099;BME280;62818;49.394;8.686;2022-09-03T03:39:37;99879.16;;;19.69;46.50
60099;BME280;62818;49.394;8.686;2022-09-03T03:40:38;99874.94;;;19.57;46.43
60099;BME280;62818;49.394;8.686;2022-09-03T03:41:41;99873.78;;;19.53;46.59
60099;BME280;62818;49.394;8.686;2022-09-03T03:42:41;99878.03;;;19.49;46.44
60099;BME280;62818;49.394;8.686;2022-09-03T03:43:42;99880.41;;;19.45;46.62
60099;BME280;62818;49.394;8.686;2022-09-03T03:44:43;99867.19;;;19.44;46.61
60099;BME280;62818;49.394;8.686;2022-09-03T03:45:55;99862.56;;;19.39;46.75
60099;BME280;62818;49.394;8.686;2022-09-03T03:46:59;99870.88;;;19.38;46.83
60099;BME280;62818;49.394;8.686;2022-09-03T03:48:02;99870.97;;;19.43;46.79
60099;BME280;62818;49.394;8.686;2022-09-03T03:49:04;99876.56;;;19.41;46.71
60099;BME280;62818;49.394;8.686;2022-09-03T03:50:06;99873.94;;;19.30;47.15
60099;BME280;62818;49.394;8.686;2022-09-03T03:51:09;99877.88;;;19.39;46.91
60099;BME280;62818;49.394;8.686;2022-09-03T03:52:10;99866.63;;;19.42;46.86
60099;BME280;62818;49.394;8.686;2022-09-03T03:53:13;99883.00;;;19.40;47.01
60099;BME280;62818;49.394;8.686;2022-09-03T03:54:18;99879.09;;;19.48;46.90
60099;BME280;62818;49.394;8.686;2022-09-03T03:55:25;99881.28;;;19.51;46.68
60099;BME280;62818;49.394;8.686;2022-09-03T03:56:28;99871.84;;;19.48;46.87
60099;BME280;62818;49.394;8.686;2022-09-03T03:57:31;99874.22;;;19.45;46.83
60099;BME280;62818;49.394;8.686;2022-09-03T03:58:32;99879.63;;;19.33;47.00
60099;BME280;62818;49.394;8.686;2022-09-03T03:59:33;99877.06;;;19.38;47.17
60099;BME280;62818;49.394;8.686;2022-09-03T04:00:34;99878.47;;;19.41;47.15
60099;BME280;62818;49.394;8.686;2022-09-03T04:01:36;99887.38;;;19.30;47.15
60099;BME280;62818;49.394;8.686;2022-09-03T04:02:37;99882.16;;;19.23;47.23
60099;BME280;62818;49.394;8.686;2022-09-03T04:03:37;99884.88;;;19.23;47.29
60099;BME280;62818;49.394;8.686;2022-09-03T04:04:39;99897.38;;;19.17;47.54
60099;BME280;62818;49.394;8.686;2022-09-03T04:05:42;99884.19;;;19.33;47.65
60099;BME280;62818;49.394;8.686;2022-09-03T04:06:53;99871.84;;;19.32;47.94
60099;BME280;62818;49.394;8.686;2022-09-03T04:07:53;99889.00;;;19.31;47.43
60099;BME280;62818;49.394;8.686;2022-09-03T04:08:54;99877.94;;;19.27;47.56
60099;BME280;62818;49.394;8.686;2022-09-03T04:09:57;99888.34;;;19.23;47.70
60099;BME280;62818;49.394;8.686;2022-09-03T04:10:59;99880.38;;;19.29;47.48
60099;BME280;62818;49.394;8.686;2022-09-03T04:12:04;99890.66;;;19.32;47.21
60099;BME280;62818;49.394;8.686;2022-09-03T04:13:09;99877.69;;;19.29;47.44
60099;BME280;62818;49.394;8.686;2022-09-03T04:14:10;99892.66;;;19.24;47.59
60099;BME280;62818;49.394;8.686;2022-09-03T04:15:11;99891.28;;;19.22;47.51
60099;BME280;62818;49.394;8.686;2022-09-03T04:16:17;99887.28;;;19.24;47.62
60099;BME280;62818;49.394;8.686;2022-09-03T04:17:26;99884.03;;;19.22;47.59
60099;BME280;62818;49.394;8.686;2022-09-03T04:18:28;99888.03;;;19.20;47.64
60099;BME280;62818;49.394;8.686;2022-09-03T04:19:34;99885.66;;;19.23;47.80
60099;BME280;62818;49.394;8.686;2022-09-03T04:20:35;99881.66;;;19.26;47.87
60099;BME280;62818;49.394;8.686;2022-09-03T04:21:38;99890.06;;;19.30;47.68
60099;BME280;62818;49.394;8.686;2022-09-03T04:22:39;99891.53;;;19.20;47.95
60099;BME280;62818;49.394;8.686;2022-09-03T04:23:41;99885.28;;;19.32;47.68
60099;BME280;62818;49.394;8.686;2022-09-03T04:24:43;99892.00;;;19.17;47.74
60099;BME280;62818;49.394;8.686;2022-09-03T04:25:51;99887.28;;;19.24;48.16
60099;BME280;62818;49.394;8.686;2022-09-03T04:26:54;99890.25;;;19.23;47.91
60099;BME280;62818;49.394;8.686;2022-09-03T04:28:00;99889.88;;;19.19;48.05
60099;BME280;62818;49.394;8.686;2022-09-03T04:29:04;99886.94;;;19.21;48.15
60099;BME280;62818;49.394;8.686;2022-09-03T04:30:07;99892.97;;;19.11;48.24
60099;BME280;62818;49.394;8.686;2022-09-03T04:31:09;99881.09;;;19.07;48.22
60099;BME280;62818;49.394;8.686;2022-09-03T04:32:14;99872.53;;;19.10;48.24
60099;BME280;62818;49.394;8.686;2022-09-03T04:33:34;99880.94;;;19.14;48.54
60099;BME280;62818;49.394;8.686;2022-09-03T04:34:39;99891.34;;;19.10;48.73
60099;BME280;62818;49.394;8.686;2022-09-03T04:35:42;99889.53;;;18.99;48.69
60099;BME280;62818;49.394;8.686;2022-09-03T04:36:43;99898.31;;;18.95;49.20
60099;BME280;62818;49.394;8.686;2022-09-03T04:37:46;99891.22;;;18.89;49.16
60099;BME280;62818;49.394;8.686;2022-09-03T04:38:52;99891.81;;;18.91;49.68
60099;BME280;62818;49.394;8.686;2022-09-03T04:39:54;99893.44;;;18.92;49.52
60099;BME280;62818;49.394;8.686;2022-09-03T04:40:57;99890.09;;;18.85;49.95
60099;BME280;62818;49.394;8.686;2022-09-03T04:41:59;99892.44;;;18.81;50.03
60099;BME280;62818;49.394;8.686;2022-09-03T04:43:00;99900.78;;;18.96;49.92
60099;BME280;62818;49.394;8.686;2022-09-03T04:44:03;99897.31;;;18.84;50.08
60099;BME280;62818;49.394;8.686;2022-09-03T04:45:05;99899.19;;;18.84;50.99
60099;BME280;62818;49.394;8.686;2022-09-03T04:46:10;99902.53;;;18.91;51.91
60099;BME280;62818;49.394;8.686;2022-09-03T04:47:12;99902.13;;;18.82;52.87
60099;BME280;62818;49.394;8.686;2022-09-03T04:48:14;99894.88;;;18.83;53.29
60099;BME280;62818;49.394;8.686;2022-09-03T04:49:15;99897.31;;;18.84;53.66
60099;BME280;62818;49.394;8.686;2022-09-03T04:50:15;99902.50;;;18.74;53.78
60099;BME280;62818;49.394;8.686;2022-09-03T04:51:21;99908.75;;;18.63;54.27
60099;BME280;62818;49.394;8.686;2022-09-03T04:52:24;99904.91;;;18.59;54.05
60099;BME280;62818;49.394;8.686;2022-09-03T04:53:34;99912.97;;;18.59;54.39
60099;BME280;62818;49.394;8.686;2022-09-03T04:54:37;99904.56;;;18.56;54.23
60099;BME280;62818;49.394;8.686;2022-09-03T04:55:37;99895.94;;;18.54;55.16
60099;BME280;62818;49.394;8.686;2022-09-03T04:56:38;99899.03;;;18.62;55.09
60099;BME280;62818;49.394;8.686;2022-09-03T04:57:43;99907.81;;;18.58;55.40
60099;BME280;62818;49.394;8.686;2022-09-03T04:58:45;99909.09;;;18.55;55.55
60099;BME280;62818;49.394;8.686;2022-09-03T04:59:46;99904.69;;;18.49;55.99
60099;BME280;62818;49.394;8.686;2022-09-03T05:00:47;99902.59;;;18.51;56.29
60099;BME280;62818;49.394;8.686;2022-09-03T05:01:47;99910.06;;;18.49;56.69
60099;BME280;62818;49.394;8.686;2022-09-03T05:02:48;99903.72;;;18.55;56.70
60099;BME280;62818;49.394;8.686;2022-09-03T05:03:50;99913.81;;;18.48;57.40
60099;BME280;62818;49.394;8.686;2022-09-03T05:04:53;99908.44;;;18.48;57.76
60099;BME280;62818;49.394;8.686;2022-09-03T05:05:54;99908.44;;;18.48;57.80
60099;BME280;62818;49.394;8.686;2022-09-03T05:06:55;99905.38;;;18.56;57.86
60099;BME280;62818;49.394;8.686;2022-09-03T05:08:01;99902.44;;;18.58;59.00
60099;BME280;62818;49.394;8.686;2022-09-03T05:09:05;99904.28;;;18.69;58.87
60099;BME280;62818;49.394;8.686;2022-09-03T05:10:09;99908.25;;;18.66;59.16
60099;BME280;62818;49.394;8.686;2022-09-03T05:11:21;99913.72;;;18.71;58.59
60099;BME280;62818;49.394;8.686;2022-09-03T05:12:23;99907.22;;;18.67;58.89
60099;BME280;62818;49.394;8.686;2022-09-03T05:13:24;99909.31;;;18.65;58.08
60099;BME280;62818;49.394;8.686;2022-09-03T05:14:25;99909.78;;;18.62;57.99
60099;BME280;62818;49.394;8.686;2022-09-03T05:15:27;99913.25;;;18.74;57.67
60099;BME280;62818;49.394;8.686;2022-09-03T05:16:30;99920.25;;;18.75;57.19
60099;BME280;62818;49.394;8.686;2022-09-03T05:17:31;99912.88;;;18.82;56.62
60099;BME280;62818;49.394;8.686;2022-09-03T05:18:35;99916.66;;;18.70;56.56
60099;BME280;62818;49.394;8.686;2022-09-03T05:19:36;99914.88;;;18.75;56.15
60099;BME280;62818;49.394;8.686;2022-09-03T05:20:41;99921.19;;;18.97;55.71
60099;BME280;62818;49.394;8.686;2022-09-03T05:21:42;99918.22;;;18.82;56.16
60099;BME280;62818;49.394;8.686;2022-09-03T05:22:44;99917.66;;;18.80;56.62
60099;BME280;62818;49.394;8.686;2022-09-03T05:23:47;99919.16;;;18.88;56.56
60099;BME280;62818;49.394;8.686;2022-09-03T05:24:52;99917.38;;;18.93;56.53
60099;BME280;62818;49.394;8.686;2022-09-03T05:25:59;99917.72;;;19.13;56.26
60099;BME280;62818;49.394;8.686;2022-09-03T05:27:01;99916.78;;;18.91;56.87
60099;BME280;62818;49.394;8.686;2022-09-03T05:28:02;99918.28;;;18.99;56.58
60099;BME280;62818;49.394;8.686;2022-09-03T05:29:08;99918.13;;;19.05;56.45
60099;BME280;62818;49.394;8.686;2022-09-03T05:30:11;99920.41;;;19.13;56.33
60099;BME280;62818;49.394;8.686;2022-09-03T05:31:14;99914.38;;;19.06;56.25
60099;BME280;62818;49.394;8.686;2022-09-03T05:32:21;99911.22;;;19.09;55.64
60099;BME280;62818;49.394;8.686;2022-09-03T05:33:24;99917.47;;;18.98;56.17
60099;BME280;62818;49.394;8.686;2022-09-03T05:34:25;99921.00;;;19.15;55.67
60099;BME280;62818;49.394;8.686;2022-09-03T05:35:28;99921.63;;;19.06;55.37
60099;BME280;62818;49.394;8.686;2022-09-03T05:36:34;99912.84;;;19.10;55.35
60099;BME280;62818;49.394;8.686;2022-09-03T05:37:36;99924.75;;;19.31;54.71
60099;BME280;62818;49.394;8.686;2022-09-03T05:38:39;99928.66;;;19.23;55.17
60099;BME280;62818;49.394;8.686;2022-09-03T05:39:44;99927.81;;;19.06;55.64
60099;BME280;62818;49.394;8.686;2022-09-03T05:40:44;99926.66;;;19.02;55.76
60099;BME280;62818;49.394;8.686;2022-09-03T05:41:45;99926.50;;;18.92;56.02
60099;BME280;62818;49.394;8.686;2022-09-03T05:42:46;99923.81;;;18.92;55.64
60099;BME280;62818;49.394;8.686;2022-09-03T05:43:53;99924.88;;;19.08;55.37
60099;BME280;62818;49.394;8.686;2022-09-03T05:45:00;99931.38;;;18.95;55.14
60099;BME280;62818;49.394;8.686;2022-09-03T05:46:05;99923.81;;;18.92;55.21
60099;BME280;62818;49.394;8.686;2022-09-03T05:47:05;99925.88;;;18.90;55.27
60099;BME280;62818;49.394;8.686;2022-09-03T05:48:09;99931.88;;;19.09;54.96
60099;BME280;62818;49.394;8.686;2022-09-03T05:49:09;99930.06;;;18.98;54.87
60099;BME280;62818;49.394;8.686;2022-09-03T05:50:10;99942.72;;;18.86;55.66
60099;BME280;62818;49.394;8.686;2022-09-03T05:51:15;99933.16;;;18.90;56.36
60099;BME280;62818;49.394;8.686;2022-09-03T05:52:19;99930.31;;;18.96;56.48
60099;BME280;62818;49.394;8.686;2022-09-03T05:53:23;99935.16;;;19.11;56.95
60099;BME280;62818;49.394;8.686;2022-09-03T05:54:23;99936.34;;;19.03;57.50
60099;BME280;62818;49.394;8.686;2022-09-03T05:55:24;99940.66;;;19.04;58.05
60099;BME280;62818;49.394;8.686;2022-09-03T05:56:26;99935.31;;;19.04;57.59
60099;BME280;62818;49.394;8.686;2022-09-03T05:57:28;99933.19;;;19.06;57.72
60099;BME280;62818;49.394;8.686;2022-09-03T05:58:33;99940.31;;;19.29;58.00
60099;BME280;62818;49.394;8.686;2022-09-03T05:59:42;99945.66;;;19.12;58.06
60099;BME280;62818;49.394;8.686;2022-09-03T06:00:43;99946.72;;;19.11;58.54
60099;BME280;62818;49.394;8.686;2022-09-03T06:01:46;99947.28;;;19.13;59.71
60099;BME280;62818;49.394;8.686;2022-09-03T06:02:50;99941.88;;;19.25;60.03
60099;BME280;62818;49.394;8.686;2022-09-03T06:04:05;99945.66;;;19.41;59.89
60099;BME280;62818;49.394;8.686;2022-09-03T06:05:10;99938.50;;;19.63;58.48
60099;BME280;62818;49.394;8.686;2022-09-03T06:06:11;99949.38;;;19.56;58.77
60099;BME280;62818;49.394;8.686;2022-09-03T06:07:13;99944.78;;;19.23;59.11
60099;BME280;62818;49.394;8.686;2022-09-03T06:08:17;99943.19;;;19.39;58.89
60099;BME280;62818;49.394;8.686;2022-09-03T06:09:21;99942.38;;;19.39;59.66
60099;BME280;62818;49.394;8.686;2022-09-03T06:10:22;99944.69;;;19.47;59.56
60099;BME280;62818;49.394;8.686;2022-09-03T06:11:26;99946.97;;;19.27;58.94
60099;BME280;62818;49.394;8.686;2022-09-03T06:12:28;99950.66;;;19.20;59.57
60099;BME280;62818;49.394;8.686;2022-09-03T06:13:33;99955.53;;;19.23;59.91
60099;BME280;62818;49.394;8.686;2022-09-03T06:14:36;99955.25;;;19.37;59.57
60099;BME280;62818;49.394;8.686;2022-09-03T06:15:37;99952.69;;;19.58;59.03
60099;BME280;62818;49.394;8.686;2022-09-03T06:16:43;99957.72;;;19.55;59.17
60099;BME280;62818;49.394;8.686;2022-09-03T06:17:47;99955.69;;;19.62;58.92
60099;BME280;62818;49.394;8.686;2022-09-03T06:18:48;99955.75;;;19.50;60.02
60099;BME280;62818;49.394;8.686;2022-09-03T06:19:52;99953.72;;;19.74;58.95
60099;BME280;62818;49.394;8.686;2022-09-03T06:20:56;99958.78;;;19.87;58.95
60099;BME280;62818;49.394;8.686;2022-09-03T06:22:04;99954.88;;;19.78;58.78
60099;BME280;62818;49.394;8.686;2022-09-03T06:23:07;99958.84;;;19.92;58.58
60099;BME280;62818;49.394;8.686;2022-09-03T06:24:13;99962.25;;;19.87;58.82
60099;BME280;62818;49.394;8.686;2022-09-03T06:25:19;99969.13;;;19.95;58.51
60099;BME280;62818;49.394;8.686;2022-09-03T06:26:21;99967.63;;;19.87;59.00
60099;BME280;62818;49.394;8.686;2022-09-03T06:27:25;99972.47;;;19.69;59.84
60099;BME280;62818;49.394;8.686;2022-09-03T06:28:29;99977.75;;;19.64;60.93
60099;BME280;62818;49.394;8.686;2022-09-03T06:29:36;99986.41;;;19.66;60.88
60099;BME280;62818;49.394;8.686;2022-09-03T06:30:38;99977.75;;;19.64;61.17
60099;BME280;62818;49.394;8.686;2022-09-03T06:31:38;99983.44;;;19.67;60.62
60099;BME280;62818;49.394;8.686;2022-09-03T06:32:45;99981.09;;;20.04;59.47
60099;BME280;62818;49.394;8.686;2022-09-03T06:33:46;99979.72;;;20.02;60.71
60099;BME280;62818;49.394;8.686;2022-09-03T06:34:50;99990.00;;;19.71;61.97
60099;BME280;62818;49.394;8.686;2022-09-03T06:35:54;99986.91;;;19.63;63.84
60099;BME280;62818;49.394;8.686;2022-09-03T06:36:58;99987.16;;;19.33;66.57
60099;BME280;62818;49.394;8.686;2022-09-03T06:37:59;99993.72;;;19.25;66.83
60099;BME280;62818;49.394;8.686;2022-09-03T06:38:59;99987.16;;;19.05;66.68
60099;BME280;62818;49.394;8.686;2022-09-03T06:40:01;99996.34;;;18.92;69.93